Cranston, Rhode Island
Current Conditions -  °F | °C
As of 4:51 AM on Thursday 29 Jan 2015 (Local Time) from KPVD Reporting Station
Clear Clear  
Wind Chill: -3°   Ceiling: Unl
Heat Index:   Visibility: 10mi
Dew Point: -1°   Wind: 5mph
Humidity: 73%   Direction: 290°WNW
Pressure: 30.3"   Gusts: NA
Location:  41.78°N, 71.43°W
Report Text: KPVD 290951Z AUTO 29004KT 10SM CLR M14/M18 A3030 RMK AO2 SLP261 T11441183
Loading
Personal Weather Stations






























Interactive Weather Map New forecast layout! Learn more

10-Day Weather Forecast

Advertisements
Track Severe Weather on mobile